Tiksi, Russia
Current Conditions -  °F | °C
As of 7:00 PM on Thursday 29 Jan 2015 (Local Time) from UEEE Reporting Station
Haze Haze  
Wind Chill: -36°   Ceiling: Unl
Heat Index: -36°   Visibility: 3mi
Dew Point: -44°   Wind: 0mph
Humidity: 67%   Direction: NA
Pressure: 30.03"   Gusts: NA
Location:  71.63°N, 128.87°E
Report Text: UEEE 291000Z 00000MPS 5000 BR SCT200 M38/M42 Q1017 NOSIG RMKQFE754 23490150
Loading
Personal Weather Stations






























Interactive Weather Map New forecast layout! Learn more

10-Day Weather Forecast

Advertisements
Track Severe Weather on mobile